sensor_id;sensor_type;location;lat;lon;timestamp;temperature;humidity
25208;DHT22;13153;52.316;21.166;2023-02-19T00:01:39;4.90;99.90
25208;DHT22;13153;52.316;21.166;2023-02-19T00:04:11;4.90;99.90
25208;DHT22;13153;52.316;21.166;2023-02-19T00:06:39;4.90;99.90
25208;DHT22;13153;52.316;21.166;2023-02-19T00:09:05;4.90;99.90
25208;DHT22;13153;52.316;21.166;2023-02-19T00:11:33;4.80;99.90
25208;DHT22;13153;52.316;21.166;2023-02-19T00:14:01;4.80;99.90
25208;DHT22;13153;52.316;21.166;2023-02-19T00:16:33;4.80;99.90
25208;DHT22;13153;52.316;21.166;2023-02-19T00:19:02;4.70;99.90
25208;DHT22;13153;52.316;21.166;2023-02-19T00:21:31;4.70;99.90
25208;DHT22;13153;52.316;21.166;2023-02-19T00:23:59;4.80;99.90
25208;DHT22;13153;52.316;21.166;2023-02-19T00:26:28;4.70;99.90
25208;DHT22;13153;52.316;21.166;2023-02-19T00:28:55;4.70;99.90
25208;DHT22;13153;52.316;21.166;2023-02-19T00:31:24;4.70;99.90
25208;DHT22;13153;52.316;21.166;2023-02-19T00:33:54;4.70;99.90
25208;DHT22;13153;52.316;21.166;2023-02-19T00:36:22;4.70;99.90
25208;DHT22;13153;52.316;21.166;2023-02-19T00:38:50;4.70;99.90
25208;DHT22;13153;52.316;21.166;2023-02-19T00:41:17;4.70;99.90
25208;DHT22;13153;52.316;21.166;2023-02-19T00:46:28;4.70;99.90
25208;DHT22;13153;52.316;21.166;2023-02-19T00:48:58;4.70;99.90
25208;DHT22;13153;52.316;21.166;2023-02-19T00:51:28;4.70;99.90
25208;DHT22;13153;52.316;21.166;2023-02-19T00:53:57;4.70;99.90
25208;DHT22;13153;52.316;21.166;2023-02-19T00:56:24;4.70;99.90
25208;DHT22;13153;52.316;21.166;2023-02-19T00:58:50;4.70;99.90
25208;DHT22;13153;52.316;21.166;2023-02-19T01:01:17;4.70;99.90
25208;DHT22;13153;52.316;21.166;2023-02-19T01:03:44;4.70;99.90
25208;DHT22;13153;52.316;21.166;2023-02-19T01:06:12;4.80;99.90
25208;DHT22;13153;52.316;21.166;2023-02-19T01:08:39;4.80;99.90
25208;DHT22;13153;52.316;21.166;2023-02-19T01:11:06;4.80;99.90
25208;DHT22;13153;52.316;21.166;2023-02-19T01:13:33;4.80;99.90
25208;DHT22;13153;52.316;21.166;2023-02-19T01:18:35;4.70;99.90
25208;DHT22;13153;52.316;21.166;2023-02-19T01:21:12;4.70;99.90
25208;DHT22;13153;52.316;21.166;2023-02-19T01:23:42;4.80;99.90
25208;DHT22;13153;52.316;21.166;2023-02-19T01:26:12;4.70;99.90
25208;DHT22;13153;52.316;21.166;2023-02-19T01:28:48;4.70;99.90
25208;DHT22;13153;52.316;21.166;2023-02-19T01:31:17;4.80;99.90
25208;DHT22;13153;52.316;21.166;2023-02-19T01:33:52;4.80;99.90
25208;DHT22;13153;52.316;21.166;2023-02-19T01:36:21;4.80;99.90
25208;DHT22;13153;52.316;21.166;2023-02-19T01:38:47;4.80;99.90
25208;DHT22;13153;52.316;21.166;2023-02-19T01:41:17;4.80;99.90
25208;DHT22;13153;52.316;21.166;2023-02-19T01:44:03;4.80;99.90
25208;DHT22;13153;52.316;21.166;2023-02-19T01:46:32;4.80;99.90
25208;DHT22;13153;52.316;21.166;2023-02-19T01:49:08;4.80;99.90
25208;DHT22;13153;52.316;21.166;2023-02-19T01:51:47;4.80;99.90
25208;DHT22;13153;52.316;21.166;2023-02-19T01:54:29;4.80;99.90
25208;DHT22;13153;52.316;21.166;2023-02-19T01:57:00;4.80;99.90
25208;DHT22;13153;52.316;21.166;2023-02-19T01:59:32;4.80;99.90
25208;DHT22;13153;52.316;21.166;2023-02-19T02:01:59;4.80;99.90
25208;DHT22;13153;52.316;21.166;2023-02-19T02:04:25;4.70;99.90
25208;DHT22;13153;52.316;21.166;2023-02-19T02:06:55;4.70;99.90
25208;DHT22;13153;52.316;21.166;2023-02-19T02:09:27;4.70;99.90
25208;DHT22;13153;52.316;21.166;2023-02-19T02:12:12;4.70;99.90
25208;DHT22;13153;52.316;21.166;2023-02-19T02:14:42;4.70;99.90
25208;DHT22;13153;52.316;21.166;2023-02-19T02:17:24;4.70;99.90
25208;DHT22;13153;52.316;21.166;2023-02-19T02:22:57;4.70;99.90
25208;DHT22;13153;52.316;21.166;2023-02-19T02:33:05;4.70;99.90
25208;DHT22;13153;52.316;21.166;2023-02-19T02:35:55;4.70;99.90
25208;DHT22;13153;52.316;21.166;2023-02-19T02:38:29;4.70;99.90
25208;DHT22;13153;52.316;21.166;2023-02-19T02:40:58;4.70;99.90
25208;DHT22;13153;52.316;21.166;2023-02-19T02:43:24;4.70;99.90
25208;DHT22;13153;52.316;21.166;2023-02-19T02:45:51;4.70;99.90
25208;DHT22;13153;52.316;21.166;2023-02-19T02:48:25;4.70;99.90
25208;DHT22;13153;52.316;21.166;2023-02-19T02:53:50;4.70;99.90
25208;DHT22;13153;52.316;21.166;2023-02-19T02:56:40;4.70;99.90
25208;DHT22;13153;52.316;21.166;2023-02-19T02:59:10;4.70;99.90
25208;DHT22;13153;52.316;21.166;2023-02-19T03:01:42;4.80;99.90
25208;DHT22;13153;52.316;21.166;2023-02-19T03:08:12;4.80;99.90
25208;DHT22;13153;52.316;21.166;2023-02-19T03:10:52;4.80;99.90
25208;DHT22;13153;52.316;21.166;2023-02-19T03:13:29;4.70;99.90
25208;DHT22;13153;52.316;21.166;2023-02-19T03:16:25;4.70;99.90
25208;DHT22;13153;52.316;21.166;2023-02-19T03:19:15;4.70;99.90
25208;DHT22;13153;52.316;21.166;2023-02-19T03:21:59;4.70;99.90
25208;DHT22;13153;52.316;21.166;2023-02-19T03:24:41;4.80;99.90
25208;DHT22;13153;52.316;21.166;2023-02-19T03:27:31;4.80;99.90
25208;DHT22;13153;52.316;21.166;2023-02-19T03:30:04;4.70;99.90
25208;DHT22;13153;52.316;21.166;2023-02-19T03:33:01;4.70;99.90
25208;DHT22;13153;52.316;21.166;2023-02-19T03:35:37;4.70;99.90
25208;DHT22;13153;52.316;21.166;2023-02-19T03:38:16;4.70;99.90
25208;DHT22;13153;52.316;21.166;2023-02-19T03:46:33;4.60;99.90
25208;DHT22;13153;52.316;21.166;2023-02-19T03:49:09;4.60;99.90
25208;DHT22;13153;52.316;21.166;2023-02-19T03:55:16;4.50;99.90
25208;DHT22;13153;52.316;21.166;2023-02-19T03:58:03;4.50;99.90
25208;DHT22;13153;52.316;21.166;2023-02-19T04:00:38;4.40;99.90
25208;DHT22;13153;52.316;21.166;2023-02-19T04:06:31;4.40;99.90
25208;DHT22;13153;52.316;21.166;2023-02-19T04:09:02;4.40;99.90
25208;DHT22;13153;52.316;21.166;2023-02-19T04:11:31;4.30;99.90
25208;DHT22;13153;52.316;21.166;2023-02-19T04:14:19;4.30;99.90
25208;DHT22;13153;52.316;21.166;2023-02-19T04:16:53;4.20;99.90
25208;DHT22;13153;52.316;21.166;2023-02-19T04:19:25;4.20;99.90
25208;DHT22;13153;52.316;21.166;2023-02-19T04:21:55;4.20;99.90
25208;DHT22;13153;52.316;21.166;2023-02-19T04:24:51;4.20;99.90
25208;DHT22;13153;52.316;21.166;2023-02-19T04:27:18;4.10;99.90
25208;DHT22;13153;52.316;21.166;2023-02-19T04:29:44;4.20;99.90
25208;DHT22;13153;52.316;21.166;2023-02-19T04:32:11;4.20;99.90
25208;DHT22;13153;52.316;21.166;2023-02-19T04:34:38;4.10;99.90
25208;DHT22;13153;52.316;21.166;2023-02-19T04:37:04;4.10;99.90
25208;DHT22;13153;52.316;21.166;2023-02-19T04:39:31;4.10;99.90
25208;DHT22;13153;52.316;21.166;2023-02-19T04:41:57;4.00;99.90
25208;DHT22;13153;52.316;21.166;2023-02-19T04:44:23;4.00;99.90
25208;DHT22;13153;52.316;21.166;2023-02-19T04:46:48;4.00;99.90
25208;DHT22;13153;52.316;21.166;2023-02-19T04:49:14;4.00;99.90
25208;DHT22;13153;52.316;21.166;2023-02-19T04:51:40;3.90;99.90
25208;DHT22;13153;52.316;21.166;2023-02-19T04:54:06;3.90;99.90
25208;DHT22;13153;52.316;21.166;2023-02-19T04:56:32;3.90;99.90
25208;DHT22;13153;52.316;21.166;2023-02-19T04:58:58;3.90;99.90
25208;DHT22;13153;52.316;21.166;2023-02-19T05:01:24;3.90;99.90
25208;DHT22;13153;52.316;21.166;2023-02-19T05:03:51;3.90;99.90
25208;DHT22;13153;52.316;21.166;2023-02-19T05:06:17;3.90;99.90
25208;DHT22;13153;52.316;21.166;2023-02-19T05:08:43;3.90;99.90
25208;DHT22;13153;52.316;21.166;2023-02-19T05:11:10;3.90;99.90
25208;DHT22;13153;52.316;21.166;2023-02-19T05:13:38;3.90;99.90
25208;DHT22;13153;52.316;21.166;2023-02-19T05:16:10;3.80;99.90
25208;DHT22;13153;52.316;21.166;2023-02-19T05:18:39;3.80;99.90
25208;DHT22;13153;52.316;21.166;2023-02-19T05:21:05;3.80;99.90
25208;DHT22;13153;52.316;21.166;2023-02-19T05:23:32;3.80;99.90
25208;DHT22;13153;52.316;21.166;2023-02-19T05:25:57;3.80;99.90
25208;DHT22;13153;52.316;21.166;2023-02-19T05:28:23;3.80;99.90
25208;DHT22;13153;52.316;21.166;2023-02-19T05:30:54;3.80;99.90
25208;DHT22;13153;52.316;21.166;2023-02-19T05:33:23;3.80;99.90
25208;DHT22;13153;52.316;21.166;2023-02-19T05:35:52;3.80;99.90
25208;DHT22;13153;52.316;21.166;2023-02-19T05:38:19;3.80;99.90
25208;DHT22;13153;52.316;21.166;2023-02-19T05:40:46;3.80;99.90
25208;DHT22;13153;52.316;21.166;2023-02-19T05:43:12;3.80;99.90
25208;DHT22;13153;52.316;21.166;2023-02-19T05:45:38;3.80;99.90
25208;DHT22;13153;52.316;21.166;2023-02-19T05:48:05;3.80;99.90
25208;DHT22;13153;52.316;21.166;2023-02-19T05:50:34;3.80;99.90
25208;DHT22;13153;52.316;21.166;2023-02-19T05:53:02;3.80;99.90
25208;DHT22;13153;52.316;21.166;2023-02-19T05:55:32;3.80;99.90
25208;DHT22;13153;52.316;21.166;2023-02-19T05:58:00;3.80;99.90
25208;DHT22;13153;52.316;21.166;2023-02-19T06:00:26;3.80;99.90
25208;DHT22;13153;52.316;21.166;2023-02-19T06:02:52;3.80;99.90
25208;DHT22;13153;52.316;21.166;2023-02-19T06:05:18;3.80;99.90
25208;DHT22;13153;52.316;21.166;2023-02-19T06:07:45;3.80;99.90
25208;DHT22;13153;52.316;21.166;2023-02-19T06:10:11;3.90;99.90
25208;DHT22;13153;52.316;21.166;2023-02-19T06:12:38;3.90;99.90
25208;DHT22;13153;52.316;21.166;2023-02-19T06:15:05;3.90;99.90
25208;DHT22;13153;52.316;21.166;2023-02-19T06:17:32;3.90;99.90
25208;DHT22;13153;52.316;21.166;2023-02-19T06:19:59;3.90;99.90
25208;DHT22;13153;52.316;21.166;2023-02-19T06:22:26;3.90;99.90
25208;DHT22;13153;52.316;21.166;2023-02-19T06:24:52;3.90;99.90
25208;DHT22;13153;52.316;21.166;2023-02-19T06:27:18;3.90;99.90
25208;DHT22;13153;52.316;21.166;2023-02-19T06:29:44;3.90;99.90
25208;DHT22;13153;52.316;21.166;2023-02-19T06:32:10;4.00;99.90
25208;DHT22;13153;52.316;21.166;2023-02-19T06:34:36;4.00;99.90
25208;DHT22;13153;52.316;21.166;2023-02-19T06:37:02;4.00;99.90
25208;DHT22;13153;52.316;21.166;2023-02-19T06:39:28;4.10;99.90
25208;DHT22;13153;52.316;21.166;2023-02-19T06:41:55;4.10;99.90
25208;DHT22;13153;52.316;21.166;2023-02-19T06:44:21;4.10;99.90
25208;DHT22;13153;52.316;21.166;2023-02-19T06:46:47;4.10;99.90
25208;DHT22;13153;52.316;21.166;2023-02-19T06:49:13;4.10;99.90
25208;DHT22;13153;52.316;21.166;2023-02-19T06:51:40;4.20;99.90
25208;DHT22;13153;52.316;21.166;2023-02-19T06:54:06;4.30;99.90
25208;DHT22;13153;52.316;21.166;2023-02-19T06:56:34;4.30;99.90
25208;DHT22;13153;52.316;21.166;2023-02-19T06:59:04;4.40;99.90
25208;DHT22;13153;52.316;21.166;2023-02-19T07:01:33;4.40;99.90
25208;DHT22;13153;52.316;21.166;2023-02-19T07:04:00;4.40;99.90
25208;DHT22;13153;52.316;21.166;2023-02-19T07:06:27;4.50;99.90
25208;DHT22;13153;52.316;21.166;2023-02-19T07:08:55;4.40;99.90
25208;DHT22;13153;52.316;21.166;2023-02-19T07:11:23;4.50;99.90
25208;DHT22;13153;52.316;21.166;2023-02-19T07:13:57;4.40;99.90
25208;DHT22;13153;52.316;21.166;2023-02-19T07:16:25;4.50;99.90
25208;DHT22;13153;52.316;21.166;2023-02-19T07:18:51;4.40;99.90
25208;DHT22;13153;52.316;21.166;2023-02-19T07:21:17;4.50;99.90
25208;DHT22;13153;52.316;21.166;2023-02-19T07:23:44;4.50;99.90
25208;DHT22;13153;52.316;21.166;2023-02-19T07:26:12;4.50;99.90
25208;DHT22;13153;52.316;21.166;2023-02-19T07:28:43;4.50;99.90
25208;DHT22;13153;52.316;21.166;2023-02-19T07:31:10;4.50;99.90
25208;DHT22;13153;52.316;21.166;2023-02-19T07:33:37;4.50;99.90
25208;DHT22;13153;52.316;21.166;2023-02-19T07:36:05;4.50;99.90
25208;DHT22;13153;52.316;21.166;2023-02-19T07:38:32;4.50;99.90
25208;DHT22;13153;52.316;21.166;2023-02-19T07:41:02;4.60;99.90
25208;DHT22;13153;52.316;21.166;2023-02-19T07:43:34;4.70;99.90
25208;DHT22;13153;52.316;21.166;2023-02-19T07:46:06;4.70;99.90
25208;DHT22;13153;52.316;21.166;2023-02-19T07:48:37;4.80;99.90
25208;DHT22;13153;52.316;21.166;2023-02-19T07:51:05;4.80;99.90
25208;DHT22;13153;52.316;21.166;2023-02-19T07:53:33;4.80;99.90
25208;DHT22;13153;52.316;21.166;2023-02-19T07:56:02;4.80;99.90
25208;DHT22;13153;52.316;21.166;2023-02-19T07:58:30;4.80;99.90
25208;DHT22;13153;52.316;21.166;2023-02-19T08:00:57;4.80;99.90
25208;DHT22;13153;52.316;21.166;2023-02-19T08:03:36;4.80;99.90
25208;DHT22;13153;52.316;21.166;2023-02-19T08:06:02;4.80;99.90
25208;DHT22;13153;52.316;21.166;2023-02-19T08:08:28;4.80;99.90
25208;DHT22;13153;52.316;21.166;2023-02-19T08:10:54;4.90;99.90
25208;DHT22;13153;52.316;21.166;2023-02-19T08:13:43;5.00;99.90
25208;DHT22;13153;52.316;21.166;2023-02-19T08:16:12;5.00;99.90
25208;DHT22;13153;52.316;21.166;2023-02-19T08:18:40;5.00;99.90
25208;DHT22;13153;52.316;21.166;2023-02-19T08:21:06;5.00;99.90
25208;DHT22;13153;52.316;21.166;2023-02-19T08:23:32;5.00;99.90
25208;DHT22;13153;52.316;21.166;2023-02-19T08:25:59;5.00;99.90
25208;DHT22;13153;52.316;21.166;2023-02-19T08:28:26;5.10;99.90
25208;DHT22;13153;52.316;21.166;2023-02-19T08:30:52;5.00;99.90
25208;DHT22;13153;52.316;21.166;2023-02-19T08:33:24;5.10;99.90
25208;DHT22;13153;52.316;21.166;2023-02-19T08:35:49;5.10;99.90
25208;DHT22;13153;52.316;21.166;2023-02-19T08:38:15;5.10;99.90
25208;DHT22;13153;52.316;21.166;2023-02-19T08:40:41;5.20;99.90
25208;DHT22;13153;52.316;21.166;2023-02-19T08:43:10;5.20;99.90
25208;DHT22;13153;52.316;21.166;2023-02-19T08:45:38;5.20;99.90
25208;DHT22;13153;52.316;21.166;2023-02-19T08:48:06;5.20;99.90
25208;DHT22;13153;52.316;21.166;2023-02-19T08:50:34;5.20;99.90
25208;DHT22;13153;52.316;21.166;2023-02-19T08:53:00;5.20;99.90
25208;DHT22;13153;52.316;21.166;2023-02-19T08:55:28;5.30;99.90
25208;DHT22;13153;52.316;21.166;2023-02-19T08:57:54;5.30;99.90
25208;DHT22;13153;52.316;21.166;2023-02-19T09:00:20;5.50;99.90
25208;DHT22;13153;52.316;21.166;2023-02-19T09:02:46;5.60;99.90
25208;DHT22;13153;52.316;21.166;2023-02-19T09:05:12;5.70;99.90
25208;DHT22;13153;52.316;21.166;2023-02-19T09:07:39;5.70;99.90
25208;DHT22;13153;52.316;21.166;2023-02-19T09:10:07;5.80;99.90
25208;DHT22;13153;52.316;21.166;2023-02-19T09:12:36;5.80;99.90
25208;DHT22;13153;52.316;21.166;2023-02-19T09:15:03;5.80;99.90
25208;DHT22;13153;52.316;21.166;2023-02-19T09:17:30;5.90;99.90
25208;DHT22;13153;52.316;21.166;2023-02-19T09:19:56;5.90;99.90
25208;DHT22;13153;52.316;21.166;2023-02-19T09:22:21;6.00;99.90
25208;DHT22;13153;52.316;21.166;2023-02-19T09:24:48;6.00;99.90
25208;DHT22;13153;52.316;21.166;2023-02-19T09:27:18;6.10;99.90
25208;DHT22;13153;52.316;21.166;2023-02-19T09:29:45;6.20;99.90
25208;DHT22;13153;52.316;21.166;2023-02-19T09:32:11;6.10;99.90
25208;DHT22;13153;52.316;21.166;2023-02-19T09:34:38;6.00;99.90
25208;DHT22;13153;52.316;21.166;2023-02-19T09:37:05;6.00;99.90
25208;DHT22;13153;52.316;21.166;2023-02-19T09:39:31;6.10;99.90
25208;DHT22;13153;52.316;21.166;2023-02-19T09:42:28;6.20;99.90
25208;DHT22;13153;52.316;21.166;2023-02-19T09:44:58;6.30;99.90
25208;DHT22;13153;52.316;21.166;2023-02-19T09:47:28;6.50;99.90
25208;DHT22;13153;52.316;21.166;2023-02-19T09:50:04;6.80;99.90
25208;DHT22;13153;52.316;21.166;2023-02-19T09:52:44;7.00;99.90
25208;DHT22;13153;52.316;21.166;2023-02-19T09:55:37;7.20;99.90
25208;DHT22;13153;52.316;21.166;2023-02-19T09:58:32;7.50;99.90
25208;DHT22;13153;52.316;21.166;2023-02-19T10:01:02;7.80;99.90
25208;DHT22;13153;52.316;21.166;2023-02-19T10:03:36;7.90;99.90
25208;DHT22;13153;52.316;21.166;2023-02-19T10:06:09;7.90;99.90
25208;DHT22;13153;52.316;21.166;2023-02-19T10:08:45;7.90;99.90
25208;DHT22;13153;52.316;21.166;2023-02-19T10:11:13;7.90;99.90
25208;DHT22;13153;52.316;21.166;2023-02-19T10:13:43;7.70;99.90
25208;DHT22;13153;52.316;21.166;2023-02-19T10:16:16;7.60;99.90
25208;DHT22;13153;52.316;21.166;2023-02-19T10:18:49;7.40;99.90
25208;DHT22;13153;52.316;21.166;2023-02-19T10:21:19;7.20;99.90
25208;DHT22;13153;52.316;21.166;2023-02-19T10:23:51;7.00;99.90
25208;DHT22;13153;52.316;21.166;2023-02-19T10:26:21;6.90;99.90
25208;DHT22;13153;52.316;21.166;2023-02-19T10:28:48;6.90;99.90
25208;DHT22;13153;52.316;21.166;2023-02-19T10:31:20;6.90;99.90
25208;DHT22;13153;52.316;21.166;2023-02-19T10:33:49;6.90;99.90
25208;DHT22;13153;52.316;21.166;2023-02-19T10:36:34;7.10;99.90
25208;DHT22;13153;52.316;21.166;2023-02-19T10:42:17;7.50;99.90
25208;DHT22;13153;52.316;21.166;2023-02-19T10:44:51;7.50;99.90
25208;DHT22;13153;52.316;21.166;2023-02-19T10:47:24;7.60;99.90
25208;DHT22;13153;52.316;21.166;2023-02-19T10:49:52;7.50;99.90
25208;DHT22;13153;52.316;21.166;2023-02-19T10:52:33;7.50;99.90
25208;DHT22;13153;52.316;21.166;2023-02-19T10:55:33;7.40;99.90
25208;DHT22;13153;52.316;21.166;2023-02-19T10:58:22;7.30;99.90
25208;DHT22;13153;52.316;21.166;2023-02-19T11:01:23;7.30;99.90
25208;DHT22;13153;52.316;21.166;2023-02-19T11:04:15;7.20;99.90
25208;DHT22;13153;52.316;21.166;2023-02-19T11:06:43;7.30;99.90
25208;DHT22;13153;52.316;21.166;2023-02-19T11:09:44;7.30;99.90
25208;DHT22;13153;52.316;21.166;2023-02-19T11:12:24;7.20;99.90
25208;DHT22;13153;52.316;21.166;2023-02-19T11:14:56;7.20;99.90
25208;DHT22;13153;52.316;21.166;2023-02-19T11:17:26;7.10;99.90
25208;DHT22;13153;52.316;21.166;2023-02-19T11:20:01;7.00;99.90
25208;DHT22;13153;52.316;21.166;2023-02-19T11:22:36;6.90;99.90
25208;DHT22;13153;52.316;21.166;2023-02-19T11:27:34;6.80;99.90
25208;DHT22;13153;52.316;21.166;2023-02-19T11:30:40;6.80;99.90
25208;DHT22;13153;52.316;21.166;2023-02-19T11:33:21;6.70;99.90
25208;DHT22;13153;52.316;21.166;2023-02-19T11:38:42;6.80;99.90
25208;DHT22;13153;52.316;21.166;2023-02-19T11:53:28;7.20;99.90
25208;DHT22;13153;52.316;21.166;2023-02-19T11:56:22;7.30;99.90
25208;DHT22;13153;52.316;21.166;2023-02-19T12:02:17;7.50;99.90
25208;DHT22;13153;52.316;21.166;2023-02-19T12:39:44;7.50;99.90
25208;DHT22;13153;52.316;21.166;2023-02-19T12:45:18;7.60;99.90
25208;DHT22;13153;52.316;21.166;2023-02-19T12:48:18;7.60;99.90
25208;DHT22;13153;52.316;21.166;2023-02-19T12:51:40;7.70;99.90
25208;DHT22;13153;52.316;21.166;2023-02-19T12:53:59;7.70;99.90
25208;DHT22;13153;52.316;21.166;2023-02-19T13:02:34;7.70;99.90
25208;DHT22;13153;52.316;21.166;2023-02-19T13:07:39;7.60;99.90
25208;DHT22;13153;52.316;21.166;2023-02-19T13:10:38;7.60;99.90
25208;DHT22;13153;52.316;21.166;2023-02-19T13:16:20;7.30;99.90
25208;DHT22;13153;52.316;21.166;2023-02-19T13:18:51;7.10;99.90
25208;DHT22;13153;52.316;21.166;2023-02-19T13:21:22;7.00;99.90
25208;DHT22;13153;52.316;21.166;2023-02-19T13:24:15;6.90;99.90
25208;DHT22;13153;52.316;21.166;2023-02-19T13:30:26;6.70;99.90
25208;DHT22;13153;52.316;21.166;2023-02-19T13:36:14;6.70;99.90
25208;DHT22;13153;52.316;21.166;2023-02-19T13:38:48;6.70;99.90
25208;DHT22;13153;52.316;21.166;2023-02-19T13:41:26;6.70;99.90
25208;DHT22;13153;52.316;21.166;2023-02-19T13:44:03;6.70;99.90
25208;DHT22;13153;52.316;21.166;2023-02-19T13:46:41;6.60;99.90
25208;DHT22;13153;52.316;21.166;2023-02-19T13:51:57;6.50;99.90
25208;DHT22;13153;52.316;21.166;2023-02-19T13:54:29;6.50;99.90
25208;DHT22;13153;52.316;21.166;2023-02-19T13:59:42;6.50;99.90
25208;DHT22;13153;52.316;21.166;2023-02-19T14:04:57;6.50;99.90
25208;DHT22;13153;52.316;21.166;2023-02-19T14:16:31;6.70;99.90
25208;DHT22;13153;52.316;21.166;2023-02-19T14:19:02;6.70;99.90
25208;DHT22;13153;52.316;21.166;2023-02-19T14:21:38;6.70;99.90
25208;DHT22;13153;52.316;21.166;2023-02-19T14:24:10;6.70;99.90
25208;DHT22;13153;52.316;21.166;2023-02-19T14:26:39;6.60;99.90
25208;DHT22;13153;52.316;21.166;2023-02-19T14:29:07;6.60;99.90
25208;DHT22;13153;52.316;21.166;2023-02-19T14:31:37;6.50;99.90
25208;DHT22;13153;52.316;21.166;2023-02-19T14:34:26;6.50;99.90
25208;DHT22;13153;52.316;21.166;2023-02-19T14:36:57;6.50;99.90
25208;DHT22;13153;52.316;21.166;2023-02-19T14:39:32;6.40;99.90
25208;DHT22;13153;52.316;21.166;2023-02-19T14:42:21;6.40;99.90
25208;DHT22;13153;52.316;21.166;2023-02-19T14:44:58;6.40;99.90
25208;DHT22;13153;52.316;21.166;2023-02-19T14:47:27;6.40;99.90
25208;DHT22;13153;52.316;21.166;2023-02-19T14:50:00;6.30;99.90
25208;DHT22;13153;52.316;21.166;2023-02-19T14:52:42;6.30;99.90
25208;DHT22;13153;52.316;21.166;2023-02-19T14:55:31;6.40;99.90
25208;DHT22;13153;52.316;21.166;2023-02-19T14:58:21;6.30;99.90
25208;DHT22;13153;52.316;21.166;2023-02-19T15:00:50;6.20;99.90
25208;DHT22;13153;52.316;21.166;2023-02-19T15:06:33;6.20;99.90
25208;DHT22;13153;52.316;21.166;2023-02-19T15:08:45;6.10;99.90
25208;DHT22;13153;52.316;21.166;2023-02-19T15:11:18;6.10;99.90
25208;DHT22;13153;52.316;21.166;2023-02-19T15:14:06;6.00;99.90
25208;DHT22;13153;52.316;21.166;2023-02-19T15:16:40;6.00;99.90
25208;DHT22;13153;52.316;21.166;2023-02-19T15:19:08;6.00;99.90
25208;DHT22;13153;52.316;21.166;2023-02-19T15:21:38;6.00;99.90
25208;DHT22;13153;52.316;21.166;2023-02-19T15:24:13;6.00;99.90
25208;DHT22;13153;52.316;21.166;2023-02-19T15:26:43;6.00;99.90
25208;DHT22;13153;52.316;21.166;2023-02-19T15:29:21;6.00;99.90
25208;DHT22;13153;52.316;21.166;2023-02-19T15:31:50;6.00;99.90
25208;DHT22;13153;52.316;21.166;2023-02-19T15:36:49;5.90;99.90
25208;DHT22;13153;52.316;21.166;2023-02-19T15:39:34;5.80;99.90
25208;DHT22;13153;52.316;21.166;2023-02-19T15:42:05;5.80;99.90
25208;DHT22;13153;52.316;21.166;2023-02-19T15:48:14;5.70;99.90
25208;DHT22;13153;52.316;21.166;2023-02-19T15:50:28;5.60;99.90
25208;DHT22;13153;52.316;21.166;2023-02-19T15:53:07;5.50;99.90
25208;DHT22;13153;52.316;21.166;2023-02-19T15:58:45;5.40;99.90
25208;DHT22;13153;52.316;21.166;2023-02-19T16:01:35;5.40;99.90
25208;DHT22;13153;52.316;21.166;2023-02-19T16:04:02;5.40;99.90
25208;DHT22;13153;52.316;21.166;2023-02-19T16:06:59;5.40;99.90
25208;DHT22;13153;52.316;21.166;2023-02-19T16:09:30;5.40;99.90
25208;DHT22;13153;52.316;21.166;2023-02-19T16:12:02;5.40;99.90
25208;DHT22;13153;52.316;21.166;2023-02-19T16:14:43;5.40;99.90
25208;DHT22;13153;52.316;21.166;2023-02-19T16:19:58;5.30;99.90
25208;DHT22;13153;52.316;21.166;2023-02-19T16:22:28;5.30;99.90
25208;DHT22;13153;52.316;21.166;2023-02-19T16:25:02;5.30;99.90
25208;DHT22;13153;52.316;21.166;2023-02-19T16:27:35;5.20;99.90
25208;DHT22;13153;52.316;21.166;2023-02-19T16:32:41;5.20;99.90
25208;DHT22;13153;52.316;21.166;2023-02-19T16:35:35;5.20;99.90
25208;DHT22;13153;52.316;21.166;2023-02-19T16:38:10;5.20;99.90
25208;DHT22;13153;52.316;21.166;2023-02-19T16:45:42;5.10;99.90
25208;DHT22;13153;52.316;21.166;2023-02-19T16:48:09;5.10;99.90
25208;DHT22;13153;52.316;21.166;2023-02-19T16:50:38;5.00;99.90
25208;DHT22;13153;52.316;21.166;2023-02-19T16:53:18;5.00;99.90
25208;DHT22;13153;52.316;21.166;2023-02-19T16:55:46;5.10;99.90
25208;DHT22;13153;52.316;21.166;2023-02-19T16:58:12;5.00;99.90
25208;DHT22;13153;52.316;21.166;2023-02-19T17:00:38;5.00;99.90
25208;DHT22;13153;52.316;21.166;2023-02-19T17:03:10;5.00;99.90
25208;DHT22;13153;52.316;21.166;2023-02-19T17:05:39;5.00;99.90
25208;DHT22;13153;52.316;21.166;2023-02-19T17:08:58;5.10;99.90
25208;DHT22;13153;52.316;21.166;2023-02-19T17:11:18;5.10;99.90
25208;DHT22;13153;52.316;21.166;2023-02-19T17:13:45;5.10;99.90
25208;DHT22;13153;52.316;21.166;2023-02-19T17:16:23;5.10;99.90
25208;DHT22;13153;52.316;21.166;2023-02-19T17:18:52;5.10;99.90
25208;DHT22;13153;52.316;21.166;2023-02-19T17:21:21;5.10;99.90
25208;DHT22;13153;52.316;21.166;2023-02-19T17:23:49;5.20;99.90
25208;DHT22;13153;52.316;21.166;2023-02-19T17:26:19;5.20;99.90
25208;DHT22;13153;52.316;21.166;2023-02-19T17:28:49;5.20;99.90
25208;DHT22;13153;52.316;21.166;2023-02-19T17:31:15;5.20;99.90
25208;DHT22;13153;52.316;21.166;2023-02-19T17:33:42;5.20;99.90
25208;DHT22;13153;52.316;21.166;2023-02-19T17:36:20;5.20;99.90
25208;DHT22;13153;52.316;21.166;2023-02-19T17:38:48;5.20;99.90
25208;DHT22;13153;52.316;21.166;2023-02-19T17:41:14;5.20;99.90
25208;DHT22;13153;52.316;21.166;2023-02-19T17:43:40;5.10;99.90
25208;DHT22;13153;52.316;21.166;2023-02-19T17:46:06;5.10;99.90
25208;DHT22;13153;52.316;21.166;2023-02-19T17:48:33;5.00;99.90
25208;DHT22;13153;52.316;21.166;2023-02-19T17:50:59;5.00;99.90
25208;DHT22;13153;52.316;21.166;2023-02-19T17:53:25;4.90;99.90
25208;DHT22;13153;52.316;21.166;2023-02-19T17:55:50;4.80;99.90
25208;DHT22;13153;52.316;21.166;2023-02-19T17:58:16;4.80;99.90
25208;DHT22;13153;52.316;21.166;2023-02-19T18:00:42;4.70;99.90
25208;DHT22;13153;52.316;21.166;2023-02-19T18:03:08;4.70;99.90
25208;DHT22;13153;52.316;21.166;2023-02-19T18:05:34;4.70;99.90
25208;DHT22;13153;52.316;21.166;2023-02-19T18:08:00;4.60;99.90
25208;DHT22;13153;52.316;21.166;2023-02-19T18:10:26;4.70;99.90
25208;DHT22;13153;52.316;21.166;2023-02-19T18:12:52;4.60;99.90
25208;DHT22;13153;52.316;21.166;2023-02-19T18:15:20;4.60;99.90
25208;DHT22;13153;52.316;21.166;2023-02-19T18:17:48;4.60;99.90
25208;DHT22;13153;52.316;21.166;2023-02-19T18:20:17;4.50;99.90
25208;DHT22;13153;52.316;21.166;2023-02-19T18:22:45;4.50;99.90
25208;DHT22;13153;52.316;21.166;2023-02-19T18:25:11;4.50;99.90
25208;DHT22;13153;52.316;21.166;2023-02-19T18:27:37;4.50;99.90
25208;DHT22;13153;52.316;21.166;2023-02-19T18:30:04;4.50;99.90
25208;DHT22;13153;52.316;21.166;2023-02-19T18:32:31;4.40;99.90
25208;DHT22;13153;52.316;21.166;2023-02-19T18:34:58;4.40;99.90